createdAt,value
2022-12-04T00:01:26.649Z,98174.67
2022-12-04T00:03:58.792Z,98170.75
2022-12-04T00:06:30.009Z,98165.61
2022-12-04T00:09:00.468Z,98154.83
2022-12-04T00:11:33.715Z,98147.34
2022-12-04T00:14:07.121Z,98149.91
2022-12-04T00:16:38.379Z,98144.94
2022-12-04T00:19:09.170Z,98146.27
2022-12-04T00:21:40.534Z,98148.31
2022-12-04T00:24:11.173Z,98157.02
2022-12-04T00:26:41.603Z,98157.88
2022-12-04T00:35:10.177Z,98166.73
2022-12-04T00:37:41.699Z,98167.88
2022-12-04T00:40:14.437Z,98166.05
2022-12-04T00:42:45.165Z,98169.46
2022-12-04T00:45:16.866Z,98172.53
2022-12-04T00:47:47.511Z,98178.14
2022-12-04T00:50:18.176Z,98176.40
2022-12-04T00:52:48.748Z,98174.73
2022-12-04T00:55:19.234Z,98176.92
2022-12-04T00:57:50.188Z,98177.95
2022-12-04T01:00:21.894Z,98176.54
2022-12-04T01:02:53.119Z,98172.91
2022-12-04T01:05:23.930Z,98172.23
2022-12-04T01:07:55.325Z,98174.11
2022-12-04T01:10:27.509Z,98171.38
2022-12-04T01:12:58.623Z,98168.14
2022-12-04T01:15:29.283Z,98163.02
2022-12-04T01:18:00.338Z,98159.80
2022-12-04T01:20:31.280Z,98154.67
2022-12-04T01:23:01.712Z,98146.82
2022-12-04T01:25:32.596Z,98138.61
2022-12-04T01:28:02.997Z,98133.81
2022-12-04T01:30:33.475Z,98129.05
2022-12-04T01:33:03.903Z,98128.53
2022-12-04T01:35:34.295Z,98127.83
2022-12-04T01:38:04.732Z,98128.65
2022-12-04T01:40:35.140Z,98136.66
2022-12-04T01:43:05.527Z,98131.92
2022-12-04T01:45:40.849Z,98127.70
2022-12-04T01:48:16.304Z,98127.03
2022-12-04T01:50:47.299Z,98128.20
2022-12-04T01:53:17.785Z,98131.60
2022-12-04T01:55:49.183Z,98128.71
2022-12-04T01:58:22.823Z,98127.39
2022-12-04T02:00:58.480Z,98123.12
2022-12-04T02:03:29.548Z,98124.98
2022-12-04T02:06:00.028Z,98124.11
2022-12-04T02:08:31.194Z,98129.90
2022-12-04T02:11:09.132Z,98139.27
2022-12-04T02:13:46.894Z,98149.83
2022-12-04T02:16:21.487Z,98155.27
2022-12-04T02:19:00.382Z,98151.83
2022-12-04T02:21:33.609Z,98147.90
2022-12-04T02:24:27.637Z,98152.00
2022-12-04T02:26:59.750Z,98156.11
2022-12-04T02:29:37.353Z,98156.80
2022-12-04T02:32:14.027Z,98159.33
2022-12-04T02:34:47.142Z,98158.48
2022-12-04T02:37:20.476Z,98156.06
2022-12-04T02:39:55.697Z,98157.45
2022-12-04T02:42:34.257Z,98150.67
2022-12-04T02:45:06.497Z,98147.64
2022-12-04T02:47:39.091Z,98143.21
2022-12-04T02:50:12.859Z,98150.16
2022-12-04T02:52:45.847Z,98154.92
2022-12-04T02:55:15.808Z,98157.52
2022-12-04T02:57:49.283Z,98155.66
2022-12-04T03:00:21.813Z,98150.04
2022-12-04T03:02:58.346Z,98145.76
2022-12-04T03:05:35.166Z,98146.08
2022-12-04T03:08:08.948Z,98138.92
2022-12-04T03:10:41.480Z,98140.09
2022-12-04T03:13:14.725Z,98139.05
2022-12-04T03:15:48.201Z,98141.41
2022-12-04T03:18:19.696Z,98137.14
2022-12-04T03:20:53.944Z,98136.34
2022-12-04T03:23:27.431Z,98138.41
2022-12-04T03:26:01.442Z,98136.19
2022-12-04T03:28:34.879Z,98135.14
2022-12-04T03:31:07.980Z,98131.88
2022-12-04T03:33:41.863Z,98132.08
2022-12-04T03:36:18.011Z,98132.29
2022-12-04T03:38:54.693Z,98133.33
2022-12-04T03:41:28.113Z,98135.34
2022-12-04T03:44:00.704Z,98127.98
2022-12-04T03:46:33.489Z,98132.61
2022-12-04T03:49:11.510Z,98125.83
2022-12-04T03:51:46.155Z,98127.04
2022-12-04T03:54:19.253Z,98125.48
2022-12-04T03:56:52.132Z,98123.23
2022-12-04T03:59:25.248Z,98119.27
2022-12-04T04:01:56.536Z,98117.77
2022-12-04T04:04:31.819Z,98117.96
2022-12-04T04:07:06.115Z,98119.34
2022-12-04T04:09:40.168Z,98120.35
2022-12-04T04:12:13.141Z,98117.27
2022-12-04T04:15:00.800Z,98113.36
2022-12-04T04:17:52.893Z,98114.92
2022-12-04T04:20:44.590Z,98114.95
2022-12-04T04:23:32.483Z,98114.92
2022-12-04T04:26:03.181Z,98109.44
2022-12-04T04:28:35.771Z,98109.45
2022-12-04T04:31:12.576Z,98108.95
2022-12-04T04:33:50.279Z,98111.34
2022-12-04T04:36:28.195Z,98105.02
2022-12-04T04:39:03.859Z,98111.65
2022-12-04T04:41:45.614Z,98111.83
2022-12-04T04:44:20.606Z,98107.59
2022-12-04T04:46:54.996Z,98111.16
2022-12-04T04:49:29.351Z,98111.48
2022-12-04T04:52:00.129Z,98119.95
2022-12-04T04:54:31.342Z,98123.37
2022-12-04T04:57:01.927Z,98126.33
2022-12-04T04:59:34.462Z,98129.25
2022-12-04T05:02:04.995Z,98127.54
2022-12-04T05:04:35.488Z,98130.21
2022-12-04T05:07:05.861Z,98128.35
2022-12-04T05:09:41.060Z,98128.53
2022-12-04T05:12:11.979Z,98125.16
2022-12-04T05:14:42.388Z,98128.58
2022-12-04T05:17:13.172Z,98124.28
2022-12-04T05:19:56.753Z,98123.42
2022-12-04T05:22:29.868Z,98116.82
2022-12-04T05:25:00.378Z,98111.73
2022-12-04T05:27:31.779Z,98111.02
2022-12-04T05:30:02.611Z,98108.60
2022-12-04T05:32:33.451Z,98114.86
2022-12-04T05:35:10.627Z,98112.14
2022-12-04T05:37:42.001Z,98114.55
2022-12-04T05:40:13.690Z,98111.30
2022-12-04T05:42:44.153Z,98110.40
2022-12-04T05:45:14.562Z,98116.33
2022-12-04T05:47:45.531Z,98120.58
2022-12-04T05:50:16.453Z,98118.92
2022-12-04T05:52:46.947Z,98120.61
2022-12-04T05:55:17.783Z,98118.54
2022-12-04T05:57:48.282Z,98116.64
2022-12-04T06:00:19.978Z,98115.63
2022-12-04T06:02:50.776Z,98119.27
2022-12-04T06:05:21.264Z,98121.35
2022-12-04T06:07:51.896Z,98124.55
2022-12-04T06:10:22.441Z,98127.77
2022-12-04T06:12:57.103Z,98123.02
2022-12-04T06:15:27.762Z,98121.81
2022-12-04T06:17:58.251Z,98121.82
2022-12-04T06:20:28.673Z,98123.18
2022-12-04T06:22:59.050Z,98121.64
2022-12-04T06:25:29.454Z,98123.18
2022-12-04T06:27:59.864Z,98124.21
2022-12-04T06:30:30.446Z,98128.15
2022-12-04T06:33:00.859Z,98131.76
2022-12-04T06:35:31.280Z,98131.11
2022-12-04T06:38:01.808Z,98128.39
2022-12-04T06:40:32.207Z,98133.30
2022-12-04T06:43:02.772Z,98133.14
2022-12-04T06:45:33.223Z,98133.72
2022-12-04T06:48:03.669Z,98132.40
2022-12-04T06:50:34.079Z,98126.80
2022-12-04T06:53:08.272Z,98127.50
2022-12-04T06:55:39.048Z,98126.50
2022-12-04T06:58:09.467Z,98123.11
2022-12-04T07:00:39.936Z,98124.19
2022-12-04T07:03:10.330Z,98122.34
2022-12-04T07:05:40.710Z,98117.60
2022-12-04T07:08:11.619Z,98118.79
2022-12-04T07:10:42.239Z,98119.11
2022-12-04T07:13:13.124Z,98123.23
2022-12-04T07:15:43.526Z,98122.45
2022-12-04T07:18:13.976Z,98122.00
2022-12-04T07:20:44.382Z,98125.08
2022-12-04T07:23:15.173Z,98123.20
2022-12-04T07:25:45.641Z,98121.89
2022-12-04T07:28:16.043Z,98118.56
2022-12-04T07:30:46.442Z,98120.27
2022-12-04T07:33:17.012Z,98125.23
2022-12-04T07:35:55.225Z,98117.39
2022-12-04T07:38:25.717Z,98113.81
2022-12-04T07:40:58.006Z,98114.70
2022-12-04T07:43:28.458Z,98107.42
2022-12-04T07:45:59.225Z,98105.20
2022-12-04T07:48:33.278Z,98106.88
2022-12-04T07:51:08.746Z,98113.87
2022-12-04T07:53:39.573Z,98120.22
2022-12-04T07:56:11.034Z,98118.23
2022-12-04T07:58:41.598Z,98122.14
2022-12-04T08:01:13.357Z,98124.18
2022-12-04T08:03:48.116Z,98120.61
2022-12-04T08:06:20.858Z,98124.08
2022-12-04T08:08:51.818Z,98127.50
2022-12-04T08:11:23.959Z,98133.48
2022-12-04T08:13:57.784Z,98130.41
2022-12-04T08:16:29.364Z,98133.83
2022-12-04T08:19:00.417Z,98137.60
2022-12-04T08:21:32.161Z,98142.59
2022-12-04T08:24:03.148Z,98144.14
2022-12-04T08:26:34.192Z,98145.13
2022-12-04T08:29:05.063Z,98147.16
2022-12-04T08:31:36.750Z,98148.70
2022-12-04T08:34:08.493Z,98141.55
2022-12-04T08:36:38.865Z,98141.08
2022-12-04T08:39:09.302Z,98138.89
2022-12-04T08:41:39.720Z,98134.28
2022-12-04T08:44:10.107Z,98135.86
2022-12-04T08:46:41.031Z,98135.40
2022-12-04T08:49:11.586Z,98137.48
2022-12-04T08:51:42.108Z,98135.95
2022-12-04T08:54:14.906Z,98126.89
2022-12-04T08:56:45.423Z,98120.58
2022-12-04T08:59:15.955Z,98117.73
2022-12-04T09:01:46.410Z,98117.39
2022-12-04T09:04:16.949Z,98118.35
2022-12-04T09:06:47.540Z,98121.55
2022-12-04T09:09:21.091Z,98119.30
2022-12-04T09:11:51.478Z,98116.25
2022-12-04T09:14:25.696Z,98118.52
2022-12-04T09:16:56.154Z,98115.44
2022-12-04T09:19:26.654Z,98116.45
2022-12-04T09:21:57.139Z,98109.31
2022-12-04T09:24:28.303Z,98104.06
2022-12-04T09:26:58.991Z,98110.59
2022-12-04T09:29:29.385Z,98111.95
2022-12-04T09:31:59.823Z,98114.69
2022-12-04T09:34:30.225Z,98115.41
2022-12-04T09:37:00.592Z,98125.34
2022-12-04T09:39:32.328Z,98126.90
2022-12-04T09:42:22.788Z,98127.25
2022-12-04T09:44:57.175Z,98122.67
2022-12-04T09:47:30.897Z,98116.71
2022-12-04T09:50:05.175Z,98122.02
2022-12-04T09:52:49.193Z,98115.77
2022-12-04T09:55:23.783Z,98106.77
2022-12-04T09:58:01.827Z,98106.98
2022-12-04T10:00:33.735Z,98103.81
2022-12-04T10:03:06.487Z,98105.59
2022-12-04T10:05:46.833Z,98102.58
2022-12-04T10:08:21.819Z,98098.00
2022-12-04T10:11:00.693Z,98102.98
2022-12-04T10:13:49.030Z,98105.42
2022-12-04T10:16:24.522Z,98105.15
2022-12-04T10:19:02.102Z,98103.46
2022-12-04T10:21:46.238Z,98104.98
2022-12-04T10:24:25.191Z,98112.65
2022-12-04T10:26:58.223Z,98108.58
2022-12-04T10:29:27.816Z,98105.39
2022-12-04T10:32:00.791Z,98104.94
2022-12-04T10:34:30.172Z,98103.40
2022-12-04T10:37:07.098Z,98098.95
2022-12-04T10:39:41.357Z,98091.13
2022-12-04T10:42:17.850Z,98086.52
2022-12-04T10:44:48.255Z,98080.54
2022-12-04T10:47:18.810Z,98074.80
2022-12-04T10:49:49.217Z,98071.21
2022-12-04T10:52:19.614Z,98066.41
2022-12-04T10:54:52.459Z,98068.48
2022-12-04T10:57:22.898Z,98071.23
2022-12-04T10:59:55.790Z,98072.13
2022-12-04T11:02:28.744Z,98072.34
2022-12-04T11:05:00.945Z,98068.80
2022-12-04T11:07:33.339Z,98063.05
2022-12-04T11:10:06.234Z,98055.03
2022-12-04T11:12:36.783Z,98048.04
2022-12-04T11:15:16.242Z,98044.82
2022-12-04T11:17:46.698Z,98040.58
2022-12-04T11:20:19.970Z,98038.40
2022-12-04T11:22:53.934Z,98039.06
2022-12-04T11:25:26.766Z,98040.80
2022-12-04T11:27:59.692Z,98034.85
2022-12-04T11:30:33.930Z,98035.36
2022-12-04T11:33:06.277Z,98035.54
2022-12-04T11:35:36.749Z,98028.40
2022-12-04T11:38:10.490Z,98023.67
2022-12-04T11:40:41.349Z,98017.20
2022-12-04T11:43:17.880Z,98015.88
2022-12-04T11:45:58.108Z,98005.30
2022-12-04T11:48:29.402Z,98009.09
2022-12-04T11:51:07.370Z,98008.77
2022-12-04T11:53:46.787Z,98004.52
2022-12-04T11:56:28.214Z,98003.20
2022-12-04T11:59:12.334Z,98009.19
2022-12-04T12:01:57.799Z,98010.88
2022-12-04T12:04:54.749Z,98017.86
2022-12-04T12:07:34.581Z,98021.30
2022-12-04T12:10:10.671Z,98026.27
2022-12-04T12:12:51.008Z,98024.21
2022-12-04T12:15:28.064Z,98015.27
2022-12-04T12:18:12.991Z,98011.83
2022-12-04T12:20:52.206Z,98016.95
2022-12-04T12:23:38.134Z,98027.17
2022-12-04T12:26:13.296Z,98039.80
2022-12-04T12:28:56.006Z,98045.24
2022-12-04T12:32:01.013Z,98057.87
2022-12-04T12:34:37.166Z,98051.91
2022-12-04T12:37:13.655Z,98047.66
2022-12-04T12:39:48.972Z,98039.63
2022-12-04T12:42:26.697Z,98034.32
2022-12-04T12:45:06.156Z,98035.15
2022-12-04T12:47:40.929Z,98039.27
2022-12-04T12:50:19.759Z,98037.55
2022-12-04T12:52:57.333Z,98035.86
2022-12-04T12:55:31.135Z,98032.80
2022-12-04T12:58:05.887Z,98034.34
2022-12-04T13:00:40.350Z,98028.34
2022-12-04T13:03:24.450Z,98026.97
2022-12-04T13:06:01.213Z,98029.34
2022-12-04T13:08:33.391Z,98033.64
2022-12-04T13:11:08.185Z,98028.88
2022-12-04T13:13:42.470Z,98026.30
2022-12-04T13:16:15.587Z,98026.95
2022-12-04T13:18:49.466Z,98025.56
2022-12-04T13:21:31.193Z,98026.40
2022-12-04T13:24:30.498Z,98021.94
2022-12-04T13:27:04.795Z,98019.20
2022-12-04T13:29:45.807Z,98017.34
2022-12-04T13:32:34.700Z,98014.77
2022-12-04T13:35:14.608Z,98011.52
2022-12-04T13:37:53.706Z,98007.79
2022-12-04T13:40:39.047Z,98003.36
2022-12-04T13:43:38.493Z,98002.36
2022-12-04T13:46:22.328Z,97993.67
2022-12-04T13:48:52.712Z,97995.36
2022-12-04T13:51:36.122Z,97992.29
2022-12-04T13:54:27.512Z,97977.93
2022-12-04T13:56:59.145Z,97973.34
2022-12-04T13:59:39.435Z,97967.39
2022-12-04T14:02:28.882Z,97961.27
2022-12-04T14:05:04.656Z,97960.05
2022-12-04T14:07:37.577Z,97970.45
2022-12-04T14:10:07.644Z,97976.06
2022-12-04T14:12:40.906Z,97981.00
2022-12-04T14:15:22.555Z,97972.98
2022-12-04T14:18:01.252Z,97966.83
2022-12-04T14:20:33.355Z,97963.59
2022-12-04T14:23:27.634Z,97963.73
2022-12-04T14:25:58.775Z,97965.08
2022-12-04T14:28:42.193Z,97960.63
2022-12-04T14:31:30.402Z,97964.58
2022-12-04T14:34:02.825Z,97967.14
2022-12-04T14:36:37.604Z,97965.43
2022-12-04T14:39:14.000Z,97969.03
2022-12-04T14:41:44.503Z,97969.02
2022-12-04T14:44:28.929Z,97975.17
2022-12-04T14:47:02.883Z,97973.80
2022-12-04T14:49:42.883Z,97981.63
2022-12-04T14:52:16.075Z,97981.98
2022-12-04T14:54:54.509Z,97979.59
2022-12-04T14:57:41.058Z,97980.59
2022-12-04T15:00:20.744Z,97983.67
2022-12-04T15:02:55.842Z,97987.44
2022-12-04T15:05:28.845Z,97989.14
2022-12-04T15:07:58.392Z,97988.45
2022-12-04T15:10:48.339Z,97990.00
2022-12-04T15:13:29.261Z,97993.26
2022-12-04T15:16:05.313Z,97998.92
2022-12-04T15:18:39.574Z,97998.58
2022-12-04T15:21:14.444Z,97998.05
2022-12-04T15:23:45.404Z,97994.45
2022-12-04T15:26:18.151Z,97998.52
2022-12-04T15:28:51.282Z,97999.88
2022-12-04T15:31:24.487Z,97997.52
2022-12-04T15:33:57.171Z,98002.48
2022-12-04T15:36:36.353Z,97996.48
2022-12-04T15:39:07.255Z,97996.66
2022-12-04T15:41:38.939Z,97996.61
2022-12-04T15:44:24.328Z,97996.45
2022-12-04T15:46:58.397Z,97999.88
2022-12-04T15:49:31.103Z,98001.44
2022-12-04T15:52:14.639Z,98000.58
2022-12-04T15:54:48.432Z,98000.22
2022-12-04T15:57:22.698Z,97999.54
2022-12-04T15:59:54.885Z,98000.94
2022-12-04T16:02:29.180Z,97999.41
2022-12-04T16:05:00.011Z,97994.31
2022-12-04T16:07:31.628Z,97998.06
2022-12-04T16:10:04.266Z,98000.95
2022-12-04T16:12:34.939Z,98006.59
2022-12-04T16:15:08.252Z,98011.20
2022-12-04T16:17:39.571Z,98011.54
2022-12-04T16:20:11.495Z,98009.15
2022-12-04T16:22:42.916Z,98012.21
2022-12-04T16:25:14.563Z,98012.71
2022-12-04T16:27:45.274Z,98010.98
2022-12-04T16:30:17.416Z,98011.31
2022-12-04T16:32:48.459Z,98010.44
2022-12-04T16:35:19.550Z,98007.89
2022-12-04T16:37:49.971Z,98011.33
2022-12-04T16:40:20.378Z,98011.15
2022-12-04T16:42:50.938Z,98010.30
2022-12-04T16:45:25.959Z,98007.04
2022-12-04T16:47:57.922Z,98007.55
2022-12-04T16:50:29.215Z,98000.71
2022-12-04T16:53:00.500Z,97998.86
2022-12-04T16:55:34.613Z,98001.29
2022-12-04T16:58:05.347Z,97994.33
2022-12-04T17:00:36.462Z,97989.91
2022-12-04T17:03:07.323Z,97989.60
2022-12-04T17:05:37.759Z,97996.43
2022-12-04T17:08:08.819Z,97999.84
2022-12-04T17:10:39.253Z,97997.27
2022-12-04T17:13:09.672Z,97995.91
2022-12-04T17:15:40.102Z,97992.17
2022-12-04T17:18:13.048Z,97991.17
2022-12-04T17:20:45.950Z,97987.91
2022-12-04T17:23:16.430Z,97988.89
2022-12-04T17:25:46.922Z,97990.91
2022-12-04T17:28:17.432Z,97990.39
2022-12-04T17:30:48.421Z,97987.84
2022-12-04T17:33:18.896Z,97984.48
2022-12-04T17:35:50.670Z,97980.91
2022-12-04T17:38:21.740Z,97974.27
2022-12-04T17:41:01.957Z,97968.79
2022-12-04T17:43:33.035Z,97961.97
2022-12-04T17:46:05.323Z,97960.42
2022-12-04T17:48:35.713Z,97956.17
2022-12-04T17:51:09.345Z,97950.55
2022-12-04T17:53:40.952Z,97951.25
2022-12-04T17:56:13.578Z,97951.10
2022-12-04T17:58:44.915Z,97947.88
2022-12-04T18:01:17.661Z,97944.27
2022-12-04T18:03:52.018Z,97945.14
2022-12-04T18:06:25.769Z,97942.60
2022-12-04T18:08:58.721Z,97941.74
2022-12-04T18:11:32.579Z,97937.97
2022-12-04T18:14:11.644Z,97940.71
2022-12-04T18:16:54.515Z,97934.21
2022-12-04T18:19:29.756Z,97934.73
2022-12-04T18:22:02.524Z,97934.06
2022-12-04T18:24:37.743Z,97933.55
2022-12-04T18:27:10.038Z,97936.13
2022-12-04T18:29:41.733Z,97934.95
2022-12-04T18:32:14.238Z,97933.41
2022-12-04T18:34:46.860Z,97931.71
2022-12-04T18:37:19.365Z,97937.34
2022-12-04T18:39:53.856Z,97948.61
2022-12-04T18:42:28.235Z,97953.41
2022-12-04T18:45:02.279Z,97954.58
2022-12-04T18:47:33.859Z,97956.44
2022-12-04T18:50:06.875Z,97954.02
2022-12-04T18:52:40.447Z,97957.06
2022-12-04T18:55:12.156Z,97966.27
2022-12-04T18:57:43.885Z,97969.84
2022-12-04T19:00:17.887Z,97972.73
2022-12-04T19:02:50.263Z,97978.87
2022-12-04T19:05:22.305Z,97981.23
2022-12-04T19:12:09.451Z,97985.81
2022-12-04T19:14:40.616Z,97995.35
2022-12-04T19:17:13.357Z,97989.86
2022-12-04T19:19:43.906Z,97986.59
2022-12-04T19:22:14.629Z,97985.39
2022-12-04T19:24:45.024Z,97978.20
2022-12-04T19:27:15.504Z,97969.48
2022-12-04T19:29:46.008Z,97970.83
2022-12-04T19:32:16.811Z,97972.52
2022-12-04T19:34:48.401Z,97978.98
2022-12-04T19:37:19.342Z,97989.90
2022-12-04T19:39:49.956Z,98004.73
2022-12-04T19:42:20.482Z,98009.98
2022-12-04T19:44:50.875Z,98017.31
2022-12-04T19:47:21.733Z,98020.20
2022-12-04T19:49:52.173Z,98016.62
2022-12-04T19:52:22.773Z,98011.33
2022-12-04T19:54:53.212Z,98006.21
2022-12-04T19:57:23.641Z,98008.09
2022-12-04T19:59:54.023Z,98012.55
2022-12-04T20:02:24.569Z,98004.19
2022-12-04T20:04:55.429Z,98005.72
2022-12-04T20:07:25.974Z,98003.17
2022-12-04T20:09:57.936Z,98005.39
2022-12-04T20:12:29.335Z,98012.56
2022-12-04T20:14:59.798Z,98012.20
2022-12-04T20:17:31.321Z,98017.67
2022-12-04T20:20:01.836Z,98017.16
2022-12-04T20:22:32.728Z,98018.02
2022-12-04T20:25:06.149Z,98022.28
2022-12-04T20:27:38.652Z,98032.67
2022-12-04T20:30:11.103Z,98034.15
2022-12-04T20:32:41.494Z,98034.48
2022-12-04T20:35:12.414Z,98034.48
2022-12-04T20:37:45.034Z,98030.03
2022-12-04T20:40:16.063Z,98032.08
2022-12-04T20:42:46.914Z,98033.73
2022-12-04T20:45:17.477Z,98041.57
2022-12-04T20:47:47.939Z,98041.55
2022-12-04T20:50:18.529Z,98043.40
2022-12-04T20:52:49.113Z,98046.84
2022-12-04T20:55:19.785Z,98043.61
2022-12-04T20:57:52.375Z,98043.46
2022-12-04T21:00:26.198Z,98044.63
2022-12-04T21:02:56.839Z,98045.64
2022-12-04T21:05:27.898Z,98049.20
2022-12-04T21:07:58.497Z,98040.84
2022-12-04T21:10:29.144Z,98048.21
2022-12-04T21:13:17.234Z,98049.59
2022-12-04T21:16:03.523Z,98045.83
2022-12-04T21:18:34.109Z,98042.58
2022-12-04T21:21:05.341Z,98053.33
2022-12-04T21:23:36.148Z,98053.69
2022-12-04T21:26:06.773Z,98058.00
2022-12-04T21:28:37.325Z,98061.14
2022-12-04T21:31:08.610Z,98061.71
2022-12-04T21:33:39.313Z,98061.90
2022-12-04T21:36:11.773Z,98058.86
2022-12-04T21:38:42.801Z,98059.40
2022-12-04T21:41:34.153Z,98059.92
2022-12-04T21:44:06.555Z,98059.45
2022-12-04T21:46:37.063Z,98057.08
2022-12-04T21:49:07.878Z,98058.80
2022-12-04T21:51:58.359Z,98055.38
2022-12-04T21:54:30.106Z,98051.95
2022-12-04T21:57:00.864Z,98053.50
2022-12-04T21:59:31.394Z,98055.73
2022-12-04T22:02:02.267Z,98053.52
2022-12-04T22:04:32.725Z,98060.02
2022-12-04T22:07:03.279Z,98059.81
2022-12-04T22:09:33.784Z,98058.75
2022-12-04T22:12:26.408Z,98061.95
2022-12-04T22:14:55.085Z,98064.48
2022-12-04T22:17:41.349Z,98064.99
2022-12-04T22:20:12.648Z,98066.33
2022-12-04T22:22:43.093Z,98068.88
2022-12-04T22:25:14.368Z,98074.30
2022-12-04T22:27:44.827Z,98071.34
2022-12-04T22:30:16.233Z,98067.02
2022-12-04T22:32:46.739Z,98068.19
2022-12-04T22:35:17.395Z,98069.89
2022-12-04T22:37:47.957Z,98068.14
2022-12-04T22:40:18.476Z,98072.39
2022-12-04T22:42:48.881Z,98072.02
2022-12-04T22:45:19.777Z,98074.38
2022-12-04T22:47:50.168Z,98071.60
2022-12-04T22:50:20.789Z,98073.63
2022-12-04T22:52:51.176Z,98070.70
2022-12-04T22:55:21.511Z,98070.73
2022-12-04T22:57:51.924Z,98069.02
2022-12-04T23:00:22.435Z,98064.40
2022-12-04T23:02:52.981Z,98064.20
2022-12-04T23:05:23.445Z,98061.63
2022-12-04T23:07:53.878Z,98061.13
2022-12-04T23:10:24.480Z,98064.73
2022-12-04T23:12:54.891Z,98065.43
2022-12-04T23:15:25.342Z,98064.60
2022-12-04T23:17:56.001Z,98066.33
2022-12-04T23:20:26.403Z,98066.85
2022-12-04T23:22:59.012Z,98067.73
2022-12-04T23:25:29.417Z,98066.71
2022-12-04T23:27:59.761Z,98069.65
2022-12-04T23:30:32.718Z,98067.80
2022-12-04T23:33:05.402Z,98071.44
2022-12-04T23:35:35.812Z,98072.80
2022-12-04T23:38:06.167Z,98079.48
2022-12-04T23:40:36.483Z,98083.42
2022-12-04T23:43:06.864Z,98091.14
2022-12-04T23:45:38.631Z,98089.13
2022-12-04T23:48:09.486Z,98093.05
2022-12-04T23:50:39.899Z,98092.36
2022-12-04T23:53:10.430Z,98090.96
2022-12-04T23:55:40.871Z,98092.63
2022-12-04T23:58:11.258Z,98093.80
